Data for 01/02/2018

Time Sea-Level Adjusted Pressure Absolute Pressure Temperature Relative Humidity Dew Point   
(mb) (inHg) (mb) (inHg) (C) (F) (%) (C) (F)
00:05 1029 30.39 858 25.34 -12 10.4 74 -15.7 3.8
00:10 1029 30.39 858 25.34 -12.1 10.3 75 -15.7 3.7
00:15 1029 30.39 858 25.34 -12.4 9.8 74 -16 3.2
00:20 1029 30.39 858 25.34 -12.6 9.4 77 -15.8 3.6
00:25 1029 30.39 858 25.34 -12.3 10 77 -15.6 4
00:30 1029 30.39 858 25.34 -11.5 11.2 72 -15.7 3.8
00:35 1029 30.39 858 25.34 -11.4 11.5 72 -15.4 4.2
00:40 1029 30.39 858 25.34 -11.6 11.1 72 -15.6 3.8
00:45 1029 30.39 858 25.34 -11.9 10.5 73 -15.8 3.5
00:50 1029 30.39 858 25.34 -12.1 10.2 74 -15.9 3.4
00:55 1029 30.39 858 25.34 -11.9 10.5 74 -15.7 3.8
01:00 1029 30.39 858 25.34 -11.5 11.4 73 -15.5 4.2
01:05 1029 30.39 858 25.34 -11.2 11.8 72 -15.4 4.2
01:10 1029 30.39 858 25.34 -11 12.3 72 -15.1 4.9
01:15 1029 30.39 858 25.34 -11.3 11.7 72 -15.4 4.2
01:20 1029 30.39 858 25.34 -11.5 11.3 73 -15.4 4.2
01:25 1029 30.39 858 25.34 -10.8 12.6 68 -15.7 3.8
01:30 1029 30.39 858 25.34 -11.4 11.5 69 -16.1 3.1
01:35 1029 30.39 858 25.34 -12.2 10.1 72 -16.3 2.6
01:40 1029 30.39 858 25.34 -12.5 9.5 74 -16.2 2.8
01:45 1029 30.39 858 25.34 -12.6 9.4 76 -16 3.1
01:50 1029 30.39 858 25.34 -12.8 9 77 -15.9 3.3
01:55 1029 30.39 858 25.34 -12.4 9.7 77 -15.7 3.8
02:00 1029 30.39 858 25.34 -11.8 10.9 74 -15.4 4.2
02:05 1029 30.39 858 25.34 -11.7 11 74 -15.4 4.3
02:10 1029 30.39 858 25.34 -11.5 11.2 73 -15.5 4.2
02:15 1029 30.39 859 25.37 -11.7 10.9 73 -15.6 3.9
02:20 1030 30.42 859 25.37 -12 10.5 76 -15.4 4.3
02:25 1030 30.42 859 25.37 -12.3 10 76 -15.7 3.8
02:30 1030 30.42 859 25.37 -12.3 9.9 76 -15.6 3.9
02:35 1030 30.42 859 25.37 -12 10.4 72 -16.1 3
02:40 1030 30.42 859 25.37 -12.3 9.8 75 -15.8 3.5
02:45 1030 30.42 859 25.37 -11.8 10.8 74 -15.5 4
02:50 1030 30.42 860 25.4 -12 10.4 74 -15.8 3.6
02:55 1030 30.42 860 25.4 -12.6 9.3 75 -16.1 3
03:00 1030 30.42 860 25.4 -12.8 9.1 77 -16 3.1
03:05 1030 30.42 860 25.4 -12.8 9.1 75 -16.3 2.7
03:10 1030 30.42 860 25.4 -13 8.6 77 -16.2 2.9
03:15 1030 30.42 860 25.4 -12.9 8.8 77 -16.2 2.9
03:20 1030 30.42 860 25.4 -12.8 8.9 74 -16.5 2.3
03:25 1030 30.42 859 25.37 -13.1 8.5 75 -16.6 2
03:30 1030 30.42 859 25.37 -13.1 8.5 74 -16.8 1.7
03:35 1030 30.42 859 25.37 -12.8 8.9 70 -17.1 1.1
03:40 1030 30.42 859 25.37 -12.3 9.8 68 -17 1.3
03:45 1030 30.42 859 25.37 -12.2 10.1 67 -17 1.3
03:50 1030 30.42 859 25.37 -12.6 9.3 69 -17.2 1
03:55 1030 30.42 859 25.37 -13.3 8.1 71 -17.6 0.4
04:00 1030 30.42 859 25.37 -13.5 7.7 72 -17.5 0.5
04:05 1030 30.42 859 25.37 -13.2 8.3 71 -17.3 0.9
04:10 1030 30.42 859 25.37 -13.2 8.2 72 -17.3 0.9
04:15 1030 30.42 859 25.37 -13.3 8.1 72 -17.3 0.9
04:20 1030 30.42 859 25.37 -13 8.6 72 -17.1 1.2
04:25 1030 30.42 859 25.37 -13.1 8.5 72 -17 1.3
04:30 1030 30.42 859 25.37 -12.6 9.3 69 -17.2 1
04:35 1030 30.42 859 25.37 -12.9 8.8 70 -17.3 0.8
04:40 1030 30.42 859 25.37 -12.7 9.1 68 -17.5 0.6
04:45 1030 30.42 859 25.37 -12.6 9.4 68 -17.3 0.9
04:50 1030 30.42 859 25.37 -12.9 8.8 70 -17.3 0.9
04:55 1030 30.42 859 25.37 -13.1 8.3 71 -17.3 0.9
05:00 1030 30.42 859 25.37 -13.4 8 73 -17.3 0.9
05:05 1030 30.42 859 25.37 -13.2 8.3 71 -17.4 0.6
05:10 1030 30.42 859 25.37 -13.1 8.4 71 -17.2 1
05:15 1030 30.42 859 25.37 -12.7 9.1 73 -16.7 2
05:20 1030 30.42 859 25.37 -13.2 8.3 73 -17.1 1.3
05:25 1030 30.42 859 25.37 -13.7 7.4 77 -16.9 1.5
05:30 1030 30.42 859 25.37 -13.2 8.2 73 -17.1 1.2
05:35 1030 30.42 859 25.37 -13.1 8.4 73 -16.9 1.6
05:40 1030 30.42 859 25.37 -12.9 8.7 71 -17.2 1
05:45 1030 30.42 859 25.37 -13 8.7 70 -17.4 0.7
05:50 1030 30.42 859 25.37 -13.2 8.2 72 -17.3 0.9
05:55 1030 30.42 859 25.37 -13.1 8.4 72 -17.2 1.1
06:00 1030 30.42 859 25.37 -13.1 8.5 71 -17.2 1
06:05 1030 30.42 859 25.37 -13.1 8.5 72 -17.1 1.3
06:10 1030 30.42 859 25.37 -13 8.7 70 -17.3 0.8
06:15 1030 30.42 859 25.37 -13.5 7.7 76 -16.8 1.8
06:20 1030 30.42 859 25.37 -13.1 8.5 71 -17.3 0.8
06:25 1030 30.42 859 25.37 -12.8 8.9 69 -17.4 0.8
06:30 1030 30.42 859 25.37 -13.5 7.6 73 -17.4 0.7
06:35 1030 30.42 859 25.37 -13.6 7.5 72 -17.5 0.4
06:40 1030 30.42 859 25.37 -13.8 7.1 74 -17.6 0.4
06:45 1030 30.42 859 25.37 -13.5 7.7 74 -17.3 0.9
06:50 1030 30.42 859 25.37 -13.4 8 75 -17 1.4
06:55 1030 30.42 859 25.37 -12.7 9.2 71 -16.9 1.5
07:00 1030 30.42 859 25.37 -12.9 8.9 71 -17.2 1.1
07:05 1030 30.42 859 25.37 -13.3 8 72 -17.3 0.8
07:10 1030 30.42 859 25.37 -13.3 8.1 72 -17.3 0.9
07:15 1030 30.42 859 25.37 -13.5 7.7 73 -17.3 0.8
07:20 1030 30.42 859 25.37 -13.6 7.5 75 -17.2 1
07:25 1030 30.42 859 25.37 -13.3 8.1 74 -16.9 1.5
07:30 1030 30.42 859 25.37 -13.2 8.3 74 -16.9 1.5
07:35 1030 30.42 859 25.37 -13.2 8.2 72 -17.2 1.1
07:40 1030 30.42 859 25.37 -13.5 7.6 74 -17.2 1
07:45 1030 30.42 859 25.37 -13.6 7.6 73 -17.4 0.6
07:50 1030 30.42 859 25.37 -13.7 7.4 74 -17.5 0.6
07:55 1030 30.42 859 25.37 -13.5 7.8 75 -17.1 1.3
08:00 1030 30.42 859 25.37 -13 8.6 73 -16.8 1.7
08:05 1030 30.42 859 25.37 -12.9 8.8 73 -16.7 2
08:10 1030 30.42 859 25.37 -12.7 9.2 71 -16.9 1.6
08:15 1030 30.42 860 25.4 -12.6 9.4 70 -16.9 1.6
08:20 1030 30.42 860 25.4 -12.6 9.2 69 -17.2 1
08:25 1030 30.42 860 25.4 -13 8.5 70 -17.4 0.6
08:30 1030 30.42 860 25.4 -13.2 8.3 68 -17.8 -0.1
08:35 1030 30.42 860 25.4 -13.2 8.2 69 -17.7 0.1
08:40 1031 30.45 860 25.4 -12.9 8.7 69 -17.6 0.4
08:45 1031 30.45 860 25.4 -12.7 9.1 69 -17.3 0.9
08:50 1031 30.45 860 25.4 -12.6 9.4 68 -17.3 0.9
08:55 1031 30.45 860 25.4 -12.2 10.1 66 -17.2 1
09:00 1031 30.45 860 25.4 -11.7 11 65 -17.1 1.3
09:05 1031 30.45 860 25.4 -11.5 11.3 65 -16.9 1.6
09:10 1031 30.45 860 25.4 -11.5 11.3 63 -17.1 1.1
09:15 1031 30.45 860 25.4 -11.8 10.7 66 -17 1.4
09:20 1031 30.45 860 25.4 -11.6 11.2 65 -16.8 1.7
09:25 1031 30.45 860 25.4 -11.5 11.3 66 -16.6 2.2
09:30 1031 30.45 860 25.4 -10.8 12.6 63 -16.5 2.3
09:35 1031 30.45 860 25.4 -10.1 13.8 60 -16.4 2.4
09:40 1031 30.45 860 25.4 -9.9 14.1 59 -16.5 2.3
09:45 1031 30.45 860 25.4 -9.8 14.3 60 -16.2 2.9
09:50 1031 30.45 860 25.4 -9.9 14.3 59 -16.4 2.5
09:55 1031 30.45 860 25.4 -9.5 14.9 58 -16.3 2.7
10:00 1031 30.45 860 25.4 -9 15.8 56 -16.3 2.6
10:05 1031 30.45 860 25.4 -8.3 17.1 53 -16.1 2.9
10:10 1031 30.45 860 25.4 -8.1 17.5 52 -16.2 2.8
10:15 1031 30.45 860 25.4 -7.6 18.4 50 -16.2 2.8
10:20 1031 30.45 860 25.4 -7.3 18.8 51 -15.9 3.4
10:25 1031 30.45 860 25.4 -7.1 19.3 51 -15.7 3.8
10:30 1031 30.45 860 25.4 -6.9 19.5 51 -15.5 4
10:35 1031 30.45 860 25.4 -7.1 19.3 51 -15.6 3.9
10:40 1031 30.45 860 25.4 -6.6 20.1 52 -14.9 5.3
10:45 1031 30.45 860 25.4 -6.7 20 51 -15.2 4.7
10:50 1031 30.45 860 25.4 -6.4 20.5 51 -15 4.9
10:55 1031 30.45 860 25.4 -6.4 20.5 49 -15.5 4
11:00 1031 30.45 860 25.4 -6.6 20.1 50 -15.3 4.4
11:05 1031 30.45 860 25.4 -6.8 19.7 51 -15.5 4.1
11:10 1031 30.45 860 25.4 -6.4 20.5 49 -15.6 4
11:15 1031 30.45 860 25.4 -6.5 20.2 49 -15.6 3.9
11:20 1031 30.45 860 25.4 -6.4 20.5 49 -15.5 4.2
11:25 1031 30.45 860 25.4 -6.3 20.6 48 -15.6 3.9
11:30 1031 30.45 860 25.4 -5.7 21.8 47 -15.4 4.3
11:35 1031 30.45 860 25.4 -5.7 21.8 48 -15 5
11:40 1031 30.45 860 25.4 -6.1 21.1 49 -15.2 4.6
11:45 1031 30.45 860 25.4 -5.7 21.8 48 -14.9 5.1
11:50 1031 30.45 860 25.4 -5.4 22.3 48 -14.7 5.5
11:55 1031 30.45 860 25.4 -5.1 22.8 48 -14.6 5.8
12:00 1031 30.45 860 25.4 -4.9 23.2 48 -14.3 6.2
12:05 1031 30.45 860 25.4 -4.8 23.3 47 -14.5 5.9
12:10 1031 30.45 860 25.4 -5.7 21.7 51 -14.3 6.2
12:15 1031 30.45 860 25.4 -7 19.3 54 -14.9 5.2
12:20 1031 30.45 860 25.4 -6.6 20.1 52 -14.9 5.1
12:25 1031 30.45 860 25.4 -5.8 21.5 49 -14.9 5.1
12:30 1031 30.45 860 25.4 -5.5 22 46 -15.4 4.3
12:35 1031 30.45 860 25.4 -5.5 22.1 48 -14.8 5.4
12:40 1031 30.45 860 25.4 -4.9 23.2 46 -14.8 5.3
12:45 1031 30.45 860 25.4 -4.8 23.3 46 -14.9 5.2
12:50 1030 30.42 860 25.4 -4.6 23.7 45 -14.9 5.2
12:55 1030 30.42 860 25.4 -4.3 24.3 44 -14.8 5.4
13:00 1030 30.42 860 25.4 -4.6 23.8 46 -14.4 6
13:05 1030 30.42 860 25.4 -5 22.9 47 -14.7 5.6
13:10 1030 30.42 860 25.4 -5 22.9 46 -14.8 5.3
13:15 1030 30.42 860 25.4 -4.3 24.2 43 -15.1 4.8
13:20 1030 30.42 860 25.4 -4.6 23.8 45 -14.9 5.2
13:25 1030 30.42 860 25.4 -5 23 45 -15.3 4.5
13:30 1030 30.42 860 25.4 -4.7 23.5 44 -15.2 4.7
13:35 1030 30.42 860 25.4 -5.1 22.8 44 -15.6 4
13:40 1030 30.42 860 25.4 -4.6 23.7 45 -14.9 5.2
13:45 1031 30.45 860 25.4 -4.9 23.2 47 -14.5 6
13:50 1031 30.45 860 25.4 -5.2 22.6 47 -14.9 5.2
13:55 1030 30.42 860 25.4 -4.7 23.6 44 -15.2 4.7
14:00 1030 30.42 860 25.4 -4.4 24.1 45 -14.7 5.6
14:05 1030 30.42 860 25.4 -4.1 24.6 44 -14.7 5.6
14:10 1030 30.42 860 25.4 -4.8 23.4 45 -14.9 5.2
14:15 1030 30.42 860 25.4 -4.8 23.3 44 -15.2 4.6
14:20 1030 30.42 860 25.4 -5 23 45 -15.3 4.5
14:25 1030 30.42 860 25.4 -5.2 22.6 47 -14.8 5.4
14:30 1031 30.45 860 25.4 -4.9 23.2 46 -14.9 5.1
14:35 1031 30.45 860 25.4 -4.4 24.1 44 -15 5.1
14:40 1031 30.45 860 25.4 -4.2 24.5 43 -15 5.1
14:45 1030 30.42 860 25.4 -5.2 22.6 46 -15.2 4.7
14:50 1030 30.42 860 25.4 -5.6 21.9 46 -15.4 4.2
14:55 1031 30.45 860 25.4 -5.2 22.7 45 -15.5 4.1
15:00 1031 30.45 860 25.4 -5.1 22.8 44 -15.7 3.8
15:05 1031 30.45 860 25.4 -4.6 23.8 44 -14.9 5.1
15:10 1031 30.45 860 25.4 -4.3 24.3 44 -14.7 5.6
15:15 1031 30.45 860 25.4 -4.2 24.5 43 -14.9 5.2
15:20 1031 30.45 860 25.4 -4.7 23.5 45 -15 5
15:25 1030 30.42 860 25.4 -5.2 22.6 47 -14.9 5.1
15:30 1030 30.42 860 25.4 -5.5 22.2 47 -15.1 4.9
15:35 1030 30.42 860 25.4 -5.5 22.1 46 -15.2 4.6
15:40 1030 30.42 860 25.4 -5.5 22.1 47 -15.1 4.7
15:45 1030 30.42 860 25.4 -5.7 21.7 46 -15.5 4.1
15:50 1030 30.42 860 25.4 -6.1 21 49 -15.3 4.5
15:55 1030 30.42 859 25.37 -6.1 21.1 48 -15.3 4.4
16:00 1030 30.42 859 25.37 -5.8 21.6 46 -15.7 3.7
16:05 1030 30.42 859 25.37 -5.8 21.6 48 -15.2 4.6
16:10 1030 30.42 859 25.37 -5.5 22.2 48 -14.9 5.2
16:15 1030 30.42 859 25.37 -5.3 22.5 47 -14.8 5.3
16:20 1030 30.42 859 25.37 -5.5 22.2 48 -14.8 5.4
16:25 1030 30.42 859 25.37 -6.1 21 50 -14.8 5.3
16:30 1030 30.42 859 25.37 -6.2 20.8 51 -14.7 5.5
16:35 1030 30.42 859 25.37 -6.1 21 51 -14.7 5.5
16:40 1030 30.42 859 25.37 -6.1 21.1 51 -14.6 5.7
16:45 1030 30.42 859 25.37 -6.6 20.1 54 -14.5 5.9
16:50 1030 30.42 859 25.37 -7.3 18.8 57 -14.4 6.1
16:55 1030 30.42 859 25.37 -8 17.6 58 -14.9 5.2
17:00 1030 30.42 859 25.37 -8.4 16.9 60 -14.9 5.2
17:05 1030 30.42 859 25.37 -8.2 17.2 60 -14.7 5.5
17:10 1030 30.42 859 25.37 -8.4 16.9 61 -14.7 5.5
17:15 1030 30.42 859 25.37 -8.6 16.6 62 -14.6 5.6
17:20 1030 30.42 859 25.37 -8.7 16.4 61 -15 5.1
17:25 1030 30.42 859 25.37 -8.6 16.5 61 -14.8 5.4
17:30 1030 30.42 859 25.37 -8.9 16 63 -14.7 5.5
17:35 1030 30.42 859 25.37 -9.3 15.3 64 -14.9 5.2
17:40 1030 30.42 859 25.37 -9.4 15.1 65 -14.9 5.3
17:45 1030 30.42 859 25.37 -9.3 15.3 64 -14.9 5.3
17:50 1030 30.42 859 25.37 -9 15.9 64 -14.6 5.7
17:55 1030 30.42 859 25.37 -8.9 15.9 64 -14.6 5.7
18:00 1030 30.42 859 25.37 -9.2 15.5 65 -14.7 5.6
18:05 1030 30.42 859 25.37 -9.4 15 65 -14.9 5.1
18:10 1030 30.42 859 25.37 -9.8 14.3 67 -14.9 5.1
18:15 1030 30.42 859 25.37 -10 14 67 -15.1 4.9
18:20 1030 30.42 859 25.37 -9.9 14.3 66 -15.1 4.9
18:25 1030 30.42 859 25.37 -9.8 14.3 64 -15.5 4.1
18:30 1030 30.42 859 25.37 -9.9 14.2 65 -15.3 4.5
18:35 1030 30.42 859 25.37 -10.1 13.9 66 -15.2 4.6
18:40 1030 30.42 859 25.37 -10.2 13.6 67 -15.1 4.7
18:45 1030 30.42 859 25.37 -10.2 13.6 67 -15.3 4.5
18:50 1030 30.42 859 25.37 -10.4 13.2 67 -15.4 4.3
18:55 1030 30.42 859 25.37 -10.8 12.5 68 -15.6 3.9
19:00 1030 30.42 859 25.37 -10.9 12.4 69 -15.6 3.9
19:05 1030 30.42 859 25.37 -10.9 12.5 69 -15.5 4.1
19:10 1030 30.42 859 25.37 -11 12.1 70 -15.6 4
19:15 1030 30.42 859 25.37 -11.4 11.4 71 -15.6 3.9
19:20 1030 30.42 859 25.37 -11.6 11.2 73 -15.5 4.1
19:25 1030 30.42 859 25.37 -11.5 11.3 73 -15.4 4.2
19:30 1030 30.42 859 25.37 -11.3 11.7 73 -15.3 4.5
19:35 1030 30.42 859 25.37 -11.5 11.3 73 -15.4 4.2
19:40 1030 30.42 859 25.37 -11.4 11.5 75 -15 4.9
19:45 1030 30.42 859 25.37 -11.3 11.8 72 -15.3 4.5
19:50 1030 30.42 859 25.37 -11.2 11.9 75 -14.7 5.5
19:55 1030 30.42 859 25.37 -11.2 11.9 72 -15.3 4.5
20:00 1030 30.42 859 25.37 -11.2 11.9 72 -15.3 4.5
20:05 1030 30.42 859 25.37 -11.1 12.1 70 -15.5 4.2
20:10 1029 30.39 859 25.37 -11.4 11.5 72 -15.5 4
20:15 1029 30.39 859 25.37 -12 10.4 74 -15.7 3.8
20:20 1029 30.39 859 25.37 -11.9 10.5 75 -15.6 4
20:25 1029 30.39 858 25.34 -11.5 11.3 75 -15.2 4.7
20:30 1029 30.39 858 25.34 -11.5 11.3 74 -15.2 4.6
20:35 1029 30.39 858 25.34 -12 10.4 75 -15.6 3.9
20:40 1029 30.39 858 25.34 -12.3 9.8 76 -15.7 3.8
20:45 1029 30.39 858 25.34 -11.4 11.4 71 -15.6 3.9
20:50 1029 30.39 858 25.34 -11.3 11.7 70 -15.7 3.8
20:55 1029 30.39 858 25.34 -11.2 11.9 69 -15.7 3.7
21:00 1029 30.39 858 25.34 -11.1 12.1 70 -15.6 4
21:05 1029 30.39 858 25.34 -10.7 12.7 68 -15.5 4.1
21:10 1029 30.39 858 25.34 -10.3 13.5 68 -15.1 4.9
21:15 1029 30.39 858 25.34 -10 14.1 67 -15 5
21:20 1029 30.39 858 25.34 -10 13.9 66 -15.3 4.5
21:25 1029 30.39 858 25.34 -10.2 13.7 66 -15.3 4.4
21:30 1029 30.39 858 25.34 -10.3 13.5 67 -15.3 4.5
21:35 1029 30.39 858 25.34 -10.3 13.4 68 -15.2 4.6
21:40 1029 30.39 858 25.34 -10.8 12.6 68 -15.6 4
21:45 1029 30.39 858 25.34 -10.7 12.7 68 -15.6 3.8
21:50 1029 30.39 858 25.34 -10.6 12.9 65 -16 3.2
21:55 1029 30.39 858 25.34 -11.2 11.8 69 -15.8 3.6
22:00 1029 30.39 858 25.34 -11.6 11.1 73 -15.6 4
22:05 1029 30.39 858 25.34 -11.4 11.5 76 -14.8 5.4
22:10 1029 30.39 858 25.34 -11.1 12 76 -14.5 5.9
22:15 1029 30.39 858 25.34 -11 12.3 78 -14.1 6.6
22:20 1029 30.39 858 25.34 -10.6 13 75 -14.1 6.6
22:25 1029 30.39 858 25.34 -10.3 13.4 74 -14.1 6.5
22:30 1029 30.39 858 25.34 -10 14 73 -14 6.9
22:35 1029 30.39 858 25.34 -10 14 73 -14 6.8
22:40 1029 30.39 858 25.34 -10.5 13.1 73 -14.5 5.9
22:45 1029 30.39 858 25.34 -10.5 13.1 74 -14.4 6.1
22:50 1029 30.39 858 25.34 -9.9 14.1 70 -14.4 6.1
22:55 1029 30.39 858 25.34 -10.3 13.6 71 -14.5 5.9
23:00 1029 30.39 858 25.34 -10.6 13 74 -14.4 6.1
23:05 1029 30.39 858 25.34 -10.3 13.5 73 -14.3 6.3
23:10 1029 30.39 858 25.34 -10.2 13.7 72 -14.3 6.2
23:15 1029 30.39 858 25.34 -9.7 14.5 71 -14 6.7
23:20 1029 30.39 858 25.34 -9.3 15.2 67 -14.3 6.2
23:25 1029 30.39 858 25.34 -9.1 15.6 67 -14.2 6.5
23:30 1029 30.39 858 25.34 -9 15.8 67 -14 6.7
23:35 1029 30.39 858 25.34 -8.9 16 67 -14 6.8
23:40 1029 30.39 858 25.34 -8.7 16.4 67 -13.8 7.2
23:45 1029 30.39 858 25.34 -8.8 16.3 66 -13.9 6.9
23:50 1029 30.39 858 25.34 -8.7 16.4 66 -13.9 6.9
23:55 1029 30.39 858 25.34 -8.8 16.2 67 -13.9 7
24:00 1029 30.39 858 25.34 -9.1 15.6 72 -13.3 8.1